Time;durP1;ratioP1;P1;durP2;ratioP2;P2;SDS_P1;SDS_P2;PMS_P1;PMS_P2;Temp;Humidity;BMP_temperature;BMP_pressure;BME280_temperature;BME280_humidity;BME280_pressure;Samples;Min_cycle;Max_cycle;Signal;HPM_P1;HPM_P2
2022/08/22 00:01:32;;;;;;;62.43;50.80;;;25.50;56.40;;;;;;4920611;28;91196;-52
2022/08/22 00:04:40;;;;;;;62.08;50.97;;;25.50;56.40;;;;;;4928069;28;90231;-50
2022/08/22 00:07:27;;;;;;;62.63;51.03;;;25.50;56.40;;;;;;4932342;28;91161;-55
2022/08/22 00:10:01;;;;;;;63.80;50.63;;;25.50;56.50;;;;;;4931968;28;90050;-52
2022/08/22 00:12:51;;;;;;;62.10;50.85;;;25.40;56.50;;;;;;4920434;28;90590;-54
2022/08/22 00:15:24;;;;;;;62.25;51.13;;;25.40;56.60;;;;;;4927007;28;90180;-54
2022/08/22 00:18:02;;;;;;;62.08;50.75;;;25.40;56.60;;;;;;4923234;28;94900;-54
2022/08/22 00:21:23;;;;;;;64.45;51.03;;;25.40;56.60;;;;;;4925187;28;90634;-54
2022/08/22 00:24:08;;;;;;;63.23;50.97;;;25.40;56.60;;;;;;4928544;28;92087;-53
2022/08/22 00:26:59;;;;;;;61.95;50.63;;;25.40;56.70;;;;;;4924525;28;90176;-53
2022/08/22 00:29:38;;;;;;;62.55;50.72;;;25.40;56.60;;;;;;4927281;28;94738;-54
2022/08/22 00:32:13;;;;;;;61.47;50.60;;;25.40;56.70;;;;;;4927088;28;90320;-55
2022/08/22 00:34:46;;;;;;;61.72;50.95;;;25.40;56.70;;;;;;4929336;28;90625;-50
2022/08/22 00:37:18;;;;;;;61.70;50.70;;;25.40;56.80;;;;;;4933066;28;90544;-52
2022/08/22 00:40:05;;;;;;;62.08;50.85;;;25.30;56.70;;;;;;4924069;28;90727;-55
2022/08/22 00:42:58;;;;;;;61.88;50.83;;;25.40;56.80;;;;;;4930753;28;95237;-55
2022/08/22 00:45:50;;;;;;;62.08;50.85;;;25.30;56.80;;;;;;4933096;28;89863;-52
2022/08/22 00:48:32;;;;;;;63.22;50.88;;;25.30;56.90;;;;;;4920494;28;90585;-55
2022/08/22 00:51:22;;;;;;;62.53;50.92;;;25.30;56.80;;;;;;4931471;28;91067;-54
2022/08/22 00:53:59;;;;;;;62.92;50.85;;;25.30;56.80;;;;;;4933966;28;91563;-51
2022/08/22 00:56:41;;;;;;;62.28;50.80;;;25.30;56.80;;;;;;4931168;28;90169;-52
2022/08/22 00:59:44;;;;;;;62.78;51.03;;;25.30;56.80;;;;;;4928654;28;89438;-51
2022/08/22 01:02:31;;;;;;;63.20;50.53;;;25.30;56.90;;;;;;4924253;28;89800;-53
2022/08/22 01:05:34;;;;;;;62.25;50.72;;;25.30;57.00;;;;;;4932508;28;90207;-54
2022/08/22 01:08:28;;;;;;;61.33;50.60;;;25.30;57.00;;;;;;4918700;28;91648;-51
2022/08/22 01:11:09;;;;;;;62.28;50.95;;;25.30;57.00;;;;;;4925196;28;94710;-51
2022/08/22 01:14:02;;;;;;;61.40;50.63;;;25.30;57.00;;;;;;4925929;28;91810;-55
2022/08/22 01:16:59;;;;;;;63.15;50.97;;;25.30;57.00;;;;;;4930045;28;93554;-55
2022/08/22 01:19:46;;;;;;;63.33;50.63;;;25.20;57.00;;;;;;4929724;28;89993;-51
2022/08/22 01:22:39;;;;;;;61.58;50.83;;;25.20;57.00;;;;;;4921499;28;91424;-53
2022/08/22 01:25:42;;;;;;;62.20;50.67;;;25.20;57.10;;;;;;4919538;28;92441;-49
2022/08/22 01:28:42;;;;;;;62.78;50.60;;;25.20;57.00;;;;;;4924489;28;89850;-54
2022/08/22 01:31:46;;;;;;;62.17;50.47;;;25.20;57.10;;;;;;4922100;28;90062;-54
2022/08/22 01:34:30;;;;;;;61.67;50.58;;;25.20;57.10;;;;;;4922940;28;90080;-53
2022/08/22 01:37:19;;;;;;;62.05;50.70;;;25.20;57.10;;;;;;4929316;28;89358;-54
2022/08/22 01:40:18;;;;;;;61.67;50.67;;;25.20;57.10;;;;;;4919681;28;89525;-52
2022/08/22 01:43:10;;;;;;;63.40;50.95;;;25.20;57.10;;;;;;4927826;28;89610;-52
2022/08/22 01:45:47;;;;;;;61.15;50.53;;;25.20;57.10;;;;;;4924696;28;91457;-54
2022/08/22 01:48:50;;;;;;;62.88;50.85;;;25.20;57.20;;;;;;4923326;28;90618;-52
2022/08/22 01:51:18;;;;;;;63.83;50.95;;;25.20;57.10;;;;;;4920952;28;91394;-53
2022/08/22 01:54:04;;;;;;;61.47;50.65;;;25.20;57.10;;;;;;4924650;28;89752;-53
2022/08/22 01:56:38;;;;;;;62.83;50.33;;;25.20;57.20;;;;;;4925237;28;89592;-51
2022/08/22 01:59:06;;;;;;;62.92;50.67;;;25.20;57.20;;;;;;4924196;28;90061;-54
2022/08/22 02:02:00;;;;;;;62.33;50.97;;;25.20;57.20;;;;;;4926427;28;89858;-50
2022/08/22 02:04:50;;;;;;;62.47;50.65;;;25.20;57.30;;;;;;4921903;28;91865;-53
2022/08/22 02:07:39;;;;;;;62.38;50.70;;;25.20;57.20;;;;;;4932436;28;91553;-54
2022/08/22 02:10:21;;;;;;;61.25;50.53;;;25.20;57.20;;;;;;4927116;28;90257;-53
2022/08/22 02:13:00;;;;;;;60.95;50.55;;;25.20;57.20;;;;;;4932474;28;90593;-54
2022/08/22 02:15:39;;;;;;;62.22;50.75;;;25.20;57.30;;;;;;4924067;28;93230;-54
2022/08/22 02:18:05;;;;;;;61.53;51.10;;;25.10;57.30;;;;;;4929439;28;90494;-51
2022/08/22 02:20:39;;;;;;;61.17;50.53;;;25.10;57.30;;;;;;4925786;28;92005;-54
2022/08/22 02:23:17;;;;;;;63.00;50.75;;;25.10;57.30;;;;;;4932406;28;95383;-52
2022/08/22 02:26:15;;;;;;;61.65;50.95;;;25.10;57.30;;;;;;4936322;28;90156;-54
2022/08/22 02:28:57;;;;;;;61.95;50.65;;;25.10;57.30;;;;;;4930202;28;92427;-51
2022/08/22 02:31:34;;;;;;;62.20;50.85;;;25.10;57.40;;;;;;4927978;28;89558;-54
2022/08/22 02:34:14;;;;;;;61.95;51.00;;;25.10;57.40;;;;;;4926086;28;91428;-52
2022/08/22 02:36:52;;;;;;;61.42;51.00;;;25.10;57.30;;;;;;4923145;28;90259;-52
2022/08/22 02:39:36;;;;;;;62.95;50.70;;;25.10;57.30;;;;;;4928119;28;91346;-53
2022/08/22 02:42:20;;;;;;;63.05;50.95;;;25.10;57.40;;;;;;4928140;28;90042;-54
2022/08/22 02:45:34;;;;;;;60.90;50.63;;;25.10;57.40;;;;;;4917981;28;90174;-52
2022/08/22 02:48:10;;;;;;;61.13;50.65;;;25.10;57.30;;;;;;4926049;28;89641;-53
2022/08/22 02:50:45;;;;;;;63.10;50.95;;;25.10;57.40;;;;;;4920930;28;90450;-54
2022/08/22 02:53:19;;;;;;;61.92;51.05;;;25.10;57.40;;;;;;4929002;28;89907;-54
2022/08/22 02:56:02;;;;;;;63.78;50.90;;;25.00;57.30;;;;;;4931047;28;94304;-54
2022/08/22 02:58:43;;;;;;;61.25;50.85;;;25.00;57.30;;;;;;4931581;28;92057;-53
2022/08/22 03:01:29;;;;;;;61.15;50.72;;;25.00;57.40;;;;;;4933429;28;90356;-51
2022/08/22 03:04:46;;;;;;;61.95;50.75;;;25.00;57.40;;;;;;4934576;28;97734;-53
2022/08/22 03:07:20;;;;;;;62.53;50.55;;;25.10;57.40;;;;;;4918476;28;91595;-52
2022/08/22 03:10:11;;;;;;;62.15;50.58;;;25.00;57.40;;;;;;4926283;28;91479;-52
2022/08/22 03:12:42;;;;;;;62.27;50.37;;;25.00;57.40;;;;;;4933864;28;89750;-53
2022/08/22 03:15:20;;;;;;;61.40;50.80;;;25.00;57.40;;;;;;4921975;28;92159;-54
2022/08/22 03:17:46;;;;;;;61.38;50.50;;;25.00;57.40;;;;;;4936443;28;90046;-54
2022/08/22 03:20:20;;;;;;;61.65;50.70;;;25.00;57.40;;;;;;4932769;28;89904;-49
2022/08/22 03:23:12;;;;;;;62.75;50.65;;;25.00;57.40;;;;;;4924794;28;89768;-54
2022/08/22 03:26:19;;;;;;;62.70;50.85;;;25.00;57.40;;;;;;4926636;28;92760;-54
2022/08/22 03:28:51;;;;;;;62.10;50.70;;;25.00;57.50;;;;;;4933489;28;90899;-49
2022/08/22 03:31:23;;;;;;;61.83;50.92;;;25.00;57.40;;;;;;4930887;28;90757;-51
2022/08/22 03:34:15;;;;;;;63.58;50.63;;;25.00;57.40;;;;;;4934271;28;93577;-54
2022/08/22 03:36:55;;;;;;;61.58;50.75;;;25.00;57.40;;;;;;4933573;28;90900;-54
2022/08/22 03:39:37;;;;;;;60.73;50.53;;;25.00;57.40;;;;;;4926663;28;89971;-52
2022/08/22 03:42:02;;;;;;;;;;;25.00;57.40;;;;;;4927055;28;89858;-54
2022/08/22 03:44:53;;;;;;;63.63;50.60;;;25.00;57.40;;;;;;4932460;28;90037;-54
2022/08/22 03:47:25;;;;;;;61.80;50.95;;;25.00;57.40;;;;;;4935040;28;96566;-53
2022/08/22 03:50:04;;;;;;;61.53;50.67;;;25.00;57.40;;;;;;4931651;28;90054;-53
2022/08/22 03:53:08;;;;;;;62.05;50.88;;;24.90;57.50;;;;;;4922373;28;90373;-54
2022/08/22 03:55:43;;;;;;;61.13;50.47;;;24.90;57.50;;;;;;4917019;28;90224;-49
2022/08/22 03:58:24;;;;;;;62.55;50.95;;;24.90;57.50;;;;;;4924492;28;96452;-53
2022/08/22 04:01:11;;;;;;;61.58;50.60;;;24.90;57.50;;;;;;4925146;28;92725;-53
2022/08/22 04:04:10;;;;;;;61.70;50.80;;;24.90;57.50;;;;;;4928115;28;89804;-50
2022/08/22 04:07:02;;;;;;;62.83;50.88;;;25.00;57.50;;;;;;4924675;28;89885;-51
2022/08/22 04:09:39;;;;;;;61.22;50.55;;;24.90;57.60;;;;;;4920765;28;90218;-51
2022/08/22 04:12:24;;;;;;;61.83;50.97;;;24.90;57.50;;;;;;4925873;28;90230;-52
2022/08/22 04:15:16;;;;;;;61.30;50.40;;;24.90;57.50;;;;;;4925461;28;90955;-51
2022/08/22 04:18:01;;;;;;;61.40;50.90;;;24.90;57.50;;;;;;4930423;28;90064;-53
2022/08/22 04:20:59;;;;;;;61.53;50.83;;;24.90;57.60;;;;;;4926663;28;91994;-52
2022/08/22 04:23:42;;;;;;;62.47;50.55;;;24.90;57.60;;;;;;4926841;28;90065;-53
2022/08/22 04:26:29;;;;;;;61.70;51.00;;;24.90;57.70;;;;;;4934433;28;91444;-51
2022/08/22 04:29:14;;;;;;;62.08;51.03;;;24.90;57.70;;;;;;4918589;28;92055;-52
2022/08/22 04:31:51;;;;;;;62.13;50.60;;;24.90;57.60;;;;;;4928241;28;90552;-50
2022/08/22 04:34:26;;;;;;;61.40;50.72;;;24.90;57.60;;;;;;4926433;28;89479;-51
2022/08/22 04:36:59;;;;;;;62.03;50.85;;;24.90;57.60;;;;;;4924448;28;89803;-53
2022/08/22 04:39:39;;;;;;;61.53;50.88;;;24.90;57.60;;;;;;4933776;28;91395;-54
2022/08/22 04:42:17;;;;;;;61.60;50.65;;;24.90;57.60;;;;;;4935237;28;93899;-52
2022/08/22 04:45:05;;;;;;;61.30;50.65;;;24.90;57.60;;;;;;4931085;28;93254;-50
2022/08/22 04:47:35;;;;;;;61.22;50.45;;;24.90;57.60;;;;;;4928996;28;89021;-49
2022/08/22 04:50:23;;;;;;;62.38;50.50;;;24.90;57.60;;;;;;4923784;28;91466;-50
2022/08/22 04:53:16;;;;;;;62.03;50.70;;;24.90;57.60;;;;;;4922156;28;90179;-54
2022/08/22 04:56:05;;;;;;;61.25;50.65;;;24.90;57.60;;;;;;4918361;28;92852;-51
2022/08/22 04:58:31;;;;;;;61.45;50.90;;;24.90;57.60;;;;;;4925330;28;91386;-51
2022/08/22 05:01:05;;;;;;;63.20;50.88;;;24.80;57.50;;;;;;4914415;28;91126;-51
2022/08/22 05:03:35;;;;;;;61.33;50.63;;;24.90;57.60;;;;;;4944182;28;91922;-53
2022/08/22 05:06:04;;;;;;;60.78;50.65;;;24.80;57.60;;;;;;4919853;28;93060;-51
2022/08/22 05:08:32;;;;;;;61.50;50.63;;;24.90;57.70;;;;;;4928574;28;89656;-54
2022/08/22 05:11:02;;;;;;;62.03;50.78;;;24.90;57.70;;;;;;4922093;28;90429;-52
2022/08/22 05:13:43;;;;;;;62.65;50.65;;;24.90;57.70;;;;;;4935699;28;91369;-53
2022/08/22 05:16:18;;;;;;;61.05;50.75;;;24.80;57.60;;;;;;4922755;28;90182;-52
2022/08/22 05:18:48;;;;;;;61.30;50.30;;;24.80;57.60;;;;;;4931754;28;90627;-52
2022/08/22 05:21:15;;;;;;;61.70;50.65;;;24.80;57.60;;;;;;4915796;28;93337;-50
2022/08/22 05:23:48;;;;;;;63.58;50.50;;;24.80;57.60;;;;;;4909951;28;91316;-50
2022/08/22 05:26:16;;;;;;;70.50;52.50;;;24.90;57.70;;;;;;4923169;28;90345;-54
2022/08/22 05:28:49;;;;;;;70.15;52.95;;;24.40;56.30;;;;;;4935460;28;93357;-51
2022/08/22 05:31:27;;;;;;;68.20;52.58;;;23.90;57.60;;;;;;4922628;28;94555;-55
2022/08/22 05:34:00;;;;;;;84.93;53.47;;;23.50;59.50;;;;;;4923379;28;89996;-53
2022/08/22 05:36:35;;;;;;;69.32;52.60;;;23.60;59.60;;;;;;4922725;28;96362;-54
2022/08/22 05:39:13;;;;;;;70.80;52.70;;;23.70;60.00;;;;;;4924377;28;89393;-54
2022/08/22 05:41:40;;;;;;;68.53;52.47;;;23.60;59.70;;;;;;4915332;28;89712;-55
2022/08/22 05:44:29;;;;;;;67.05;52.17;;;23.50;60.70;;;;;;4928805;28;90402;-55
2022/08/22 05:47:01;;;;;;;69.68;53.03;;;23.60;60.40;;;;;;4924246;28;91555;-52
2022/08/22 05:49:46;;;;;;;70.82;52.95;;;23.50;60.50;;;;;;4920329;28;91669;-57
2022/08/22 05:52:51;;;;;;;74.47;52.63;;;23.50;60.20;;;;;;4927241;28;96542;-54
2022/08/22 05:55:35;;;;;;;68.38;52.55;;;23.50;60.50;;;;;;4928323;28;90311;-55
2022/08/22 05:58:22;;;;;;;66.30;52.25;;;23.40;61.10;;;;;;4930736;28;90610;-54
2022/08/22 06:00:55;;;;;;;69.65;52.78;;;23.30;61.60;;;;;;4930841;28;96350;-53
2022/08/22 06:03:33;;;;;;;73.40;52.75;;;23.20;60.70;;;;;;4932936;28;90308;-56
2022/08/22 06:06:03;;;;;;;66.55;52.50;;;23.30;61.40;;;;;;4922208;28;90359;-55
2022/08/22 06:08:37;;;;;;;72.10;53.10;;;23.20;60.90;;;;;;4927882;28;95033;-56
2022/08/22 06:11:18;;;;;;;66.82;52.80;;;23.10;60.50;;;;;;4929126;28;89968;-56
2022/08/22 06:13:53;;;;;;;67.15;52.65;;;23.00;60.80;;;;;;4932549;28;91262;-58
2022/08/22 06:16:48;;;;;;;68.40;52.67;;;23.20;60.50;;;;;;4931750;28;92837;-57
2022/08/22 06:19:16;;;;;;;70.13;52.13;;;23.00;60.80;;;;;;4927632;28;90649;-58
2022/08/22 06:21:44;;;;;;;69.93;52.28;;;23.10;61.00;;;;;;4923398;28;91796;-57
2022/08/22 06:24:19;;;;;;;68.15;51.85;;;23.20;61.30;;;;;;4925857;28;93333;-56
2022/08/22 06:26:49;;;;;;;68.88;51.60;;;23.30;60.30;;;;;;4923626;28;91269;-57
2022/08/22 06:29:50;;;;;;;69.22;51.58;;;23.50;59.70;;;;;;4924458;28;91307;-55
2022/08/22 06:32:31;;;;;;;68.73;51.77;;;23.60;59.00;;;;;;4925396;28;92327;-57
2022/08/22 06:35:02;;;;;;;68.13;51.88;;;23.80;59.10;;;;;;4928259;28;94313;-56
2022/08/22 06:37:38;;;;;;;69.63;52.25;;;23.90;58.40;;;;;;4931110;28;91415;-56
2022/08/22 06:40:07;;;;;;;73.15;52.00;;;24.10;57.80;;;;;;4929059;28;91268;-54
2022/08/22 06:42:39;;;;;;;66.70;52.03;;;24.00;57.60;;;;;;4938823;28;90079;-56
2022/08/22 06:45:14;;;;;;;67.18;51.95;;;24.10;57.30;;;;;;4933324;28;89751;-54
2022/08/22 06:48:03;;;;;;;69.90;52.85;;;24.20;57.10;;;;;;4930262;28;90118;-53
2022/08/22 06:50:37;;;;;;;68.47;52.30;;;24.20;56.50;;;;;;4926123;28;89774;-54
2022/08/22 06:53:20;;;;;;;68.65;52.20;;;24.00;57.10;;;;;;4928767;28;91328;-57
2022/08/22 06:56:01;;;;;;;65.40;51.92;;;23.90;57.80;;;;;;4932547;28;90189;-52
2022/08/22 06:58:32;;;;;;;68.80;52.60;;;24.00;57.90;;;;;;4923440;28;90530;-53
2022/08/22 07:01:07;;;;;;;70.35;51.25;;;23.90;57.50;;;;;;4929464;28;89653;-54
2022/08/22 07:03:40;;;;;;;66.97;52.53;;;23.90;57.90;;;;;;4937475;28;89665;-56
2022/08/22 07:06:11;;;;;;;67.72;51.97;;;23.90;57.90;;;;;;4928388;28;91066;-53
2022/08/22 07:08:38;;;;;;;71.95;51.55;;;23.80;58.20;;;;;;4934330;28;90347;-54
2022/08/22 07:11:35;;;;;;;66.78;52.33;;;23.80;58.20;;;;;;4929015;28;93446;-55
2022/08/22 07:14:04;;;;;;;67.40;52.10;;;23.70;58.40;;;;;;4936756;28;90227;-55
2022/08/22 07:16:32;;;;;;;66.28;52.10;;;23.70;58.70;;;;;;4934730;28;90366;-56
2022/08/22 07:18:58;;;;;;;69.80;52.60;;;23.70;58.80;;;;;;4934870;28;90045;-56
2022/08/22 07:21:31;;;;;;;71.82;52.58;;;23.60;58.50;;;;;;4921802;28;89869;-57
2022/08/22 07:24:00;;;;;;;73.85;52.90;;;23.60;59.10;;;;;;4942214;28;89176;-56
2022/08/22 07:26:36;;;;;;;67.28;51.35;;;23.60;58.30;;;;;;4927411;28;91097;-55
2022/08/22 07:29:13;;;;;;;67.38;52.15;;;23.60;59.20;;;;;;4928648;28;91041;-56
2022/08/22 07:31:45;;;;;;;66.28;51.47;;;23.90;58.40;;;;;;4923409;28;90947;-55
2022/08/22 07:34:43;;;;;;;68.18;52.08;;;24.10;58.20;;;;;;4931845;28;92273;-55
2022/08/22 07:37:30;;;;;;;70.32;51.60;;;24.20;57.60;;;;;;4931839;28;90444;-53
2022/08/22 07:40:19;;;;;;;65.85;52.13;;;24.30;57.20;;;;;;4921549;28;90444;-56
2022/08/22 07:42:53;;;;;;;67.13;52.40;;;24.40;57.10;;;;;;4925103;28;90025;-54
2022/08/22 07:45:52;;;;;;;64.38;52.15;;;24.40;57.30;;;;;;4932682;28;89479;-56
2022/08/22 07:48:23;;;;;;;68.15;52.35;;;24.50;57.00;;;;;;4928159;28;90366;-52
2022/08/22 07:50:59;;;;;;;67.03;52.10;;;24.50;56.90;;;;;;4927794;28;96072;-51
2022/08/22 07:53:45;;;;;;;66.35;51.85;;;24.60;56.90;;;;;;4924624;28;90200;-54
2022/08/22 07:56:25;;;;;;;71.00;52.20;;;24.60;56.50;;;;;;4929214;28;93494;-55
2022/08/22 07:59:06;;;;;;;71.05;52.40;;;24.60;56.40;;;;;;4926142;28;91159;-55
2022/08/22 08:01:32;;;;;;;66.57;51.72;;;24.70;56.40;;;;;;4927603;28;89666;-53
2022/08/22 08:04:11;;;;;;;66.55;51.97;;;24.70;56.40;;;;;;4931572;28;90186;-54
2022/08/22 08:06:37;;;;;;;65.68;52.13;;;24.70;56.60;;;;;;4933716;28;89935;-55
2022/08/22 08:09:03;;;;;;;68.80;51.95;;;24.70;56.00;;;;;;4916339;28;90802;-54
2022/08/22 08:11:34;;;;;;;68.47;51.72;;;24.80;55.90;;;;;;4937215;28;90050;-60
2022/08/22 08:14:06;;;;;;;65.72;52.30;;;24.80;55.90;;;;;;4925497;28;90197;-54
2022/08/22 08:16:42;;;;;;;67.10;52.05;;;24.90;55.70;;;;;;4942814;28;89528;-54
2022/08/22 08:19:09;;;;;;;67.88;52.20;;;24.90;55.40;;;;;;4932592;28;93871;-52
2022/08/22 08:21:42;;;;;;;70.93;52.53;;;24.90;55.80;;;;;;4940214;28;90783;-51
2022/08/22 08:24:14;;;;;;;69.97;52.28;;;25.00;55.60;;;;;;4932432;28;91688;-53
2022/08/22 08:29:35;;;;;;;67.85;52.20;;;25.00;55.10;;;;;;4926479;28;90426;-49
2022/08/22 08:32:01;;;;;;;67.72;52.25;;;25.10;54.40;;;;;;4928634;28;90372;-52
2022/08/22 08:34:31;;;;;;;69.57;51.92;;;25.10;54.70;;;;;;4938308;28;94684;-56
2022/08/22 08:37:39;;;;;;;72.63;52.17;;;25.20;54.60;;;;;;4928706;28;94508;-55
2022/08/22 08:40:22;;;;;;;72.00;52.13;;;25.20;54.10;;;;;;4937399;28;89564;-49
2022/08/22 08:46:02;;;;;;;70.78;52.65;;;25.20;54.10;;;;;;4937344;28;89803;-58
2022/08/22 08:48:39;;;;;;;68.78;52.25;;;25.20;53.20;;;;;;4934315;28;89958;-53
2022/08/22 08:51:46;;;;;;;71.40;52.72;;;25.20;53.50;;;;;;4923743;28;91189;-55
2022/08/22 08:54:36;;;;;;;68.25;52.30;;;25.20;53.40;;;;;;4930904;28;94712;-59
2022/08/22 08:57:17;;;;;;;69.72;51.95;;;25.20;53.70;;;;;;4925108;28;89572;-55
2022/08/22 08:59:58;;;;;;;71.28;52.88;;;25.30;53.40;;;;;;4932841;28;90735;-56
2022/08/22 09:02:31;;;;;;;;;;;25.30;53.00;;;;;;4931497;28;89700;-57
2022/08/22 09:05:21;;;;;;;71.55;52.10;;;25.40;52.40;;;;;;4925595;28;92701;-59
2022/08/22 09:08:17;;;;;;;69.93;52.50;;;25.40;52.60;;;;;;4931082;28;90797;-57
2022/08/22 09:11:16;;;;;;;67.88;52.30;;;25.50;52.20;;;;;;4934102;28;89095;-57
2022/08/22 09:14:15;;;;;;;75.28;52.70;;;25.50;51.70;;;;;;4938064;28;91862;-58
2022/08/22 09:17:05;;;;;;;75.65;52.85;;;25.50;51.80;;;;;;4933908;28;90440;-55
2022/08/22 09:19:53;;;;;;;74.90;52.63;;;25.70;51.30;;;;;;4920814;28;90939;-53
2022/08/22 09:22:38;;;;;;;69.40;53.10;;;25.60;51.70;;;;;;4891170;28;93664;-54
2022/08/22 09:25:38;;;;;;;68.35;52.58;;;25.60;51.70;;;;;;4884263;28;90149;-54
2022/08/22 09:28:16;;;;;;;69.13;52.17;;;25.70;51.70;;;;;;4889956;28;92269;-51
2022/08/22 09:31:21;;;;;;;69.53;52.22;;;25.70;51.70;;;;;;4887567;28;93843;-53
2022/08/22 09:33:57;;;;;;;69.75;52.40;;;25.80;51.20;;;;;;4906182;28;91037;-54
2022/08/22 09:36:38;;;;;;;70.07;52.47;;;25.80;51.40;;;;;;4896247;28;90675;-56
2022/08/22 09:39:29;;;;;;;68.07;52.42;;;25.90;51.50;;;;;;4901806;28;89871;-56
2022/08/22 09:42:20;;;;;;;70.30;52.55;;;25.90;51.70;;;;;;4902686;28;93751;-57
2022/08/22 09:45:33;;;;;;;67.82;52.45;;;26.00;51.60;;;;;;4897608;28;91008;-52
2022/08/22 09:48:06;;;;;;;68.72;52.20;;;26.00;51.70;;;;;;4899523;28;91187;-56
2022/08/22 09:50:48;;;;;;;72.97;53.50;;;26.00;51.70;;;;;;4898705;28;93327;-56
2022/08/22 09:53:32;;;;;;;79.32;55.40;;;26.00;51.60;;;;;;4892434;28;92579;-57
2022/08/22 09:56:17;;;;;;;77.03;55.05;;;26.10;51.10;;;;;;4900911;28;91247;-55
2022/08/22 09:59:12;;;;;;;84.38;56.03;;;26.10;51.50;;;;;;4901434;28;90108;-58
2022/08/22 10:02:11;;;;;;;81.68;55.47;;;26.10;51.30;;;;;;4900199;28;89796;-54
2022/08/22 10:04:59;;;;;;;72.70;53.20;;;26.20;51.90;;;;;;4931417;28;89781;-56
2022/08/22 10:07:59;;;;;;;75.63;54.00;;;26.20;51.80;;;;;;4920880;28;89587;-58
2022/08/22 10:10:45;;;;;;;74.07;54.58;;;26.20;51.40;;;;;;4923377;28;92971;-56
2022/08/22 10:13:45;;;;;;;75.40;54.97;;;26.20;51.30;;;;;;4928966;28;89528;-58
2022/08/22 10:16:29;;;;;;;75.05;54.08;;;26.30;51.40;;;;;;4926223;28;90352;-56
2022/08/22 10:19:09;;;;;;;76.05;54.80;;;26.30;51.50;;;;;;4933943;28;92755;-56
2022/08/22 10:22:05;;;;;;;74.90;54.75;;;26.30;51.50;;;;;;4929132;28;93586;-57
2022/08/22 10:24:42;;;;;;;73.07;54.45;;;26.30;51.50;;;;;;4934258;28;91037;-56
2022/08/22 10:27:27;;;;;;;76.85;54.70;;;26.40;51.60;;;;;;4932368;28;90072;-57
2022/08/22 10:30:13;;;;;;;71.57;54.40;;;26.40;51.60;;;;;;4927337;28;93259;-57
2022/08/22 10:33:01;;;;;;;75.45;54.22;;;26.40;51.70;;;;;;4933974;28;90163;-56
2022/08/22 10:35:59;;;;;;;69.05;53.30;;;26.40;51.70;;;;;;4936320;28;88764;-57
2022/08/22 10:38:41;;;;;;;76.40;54.53;;;26.40;51.70;;;;;;4934140;28;90599;-57
2022/08/22 10:41:06;;;;;;;71.75;54.40;;;26.40;51.70;;;;;;4937493;28;90169;-55
2022/08/22 10:43:59;;;;;;;74.45;54.28;;;26.50;51.80;;;;;;4930693;28;91040;-57
2022/08/22 10:46:51;;;;;;;75.30;54.28;;;26.50;51.80;;;;;;4938462;28;91172;-57
2022/08/22 10:49:47;;;;;;;69.65;53.97;;;26.50;51.70;;;;;;4938227;28;89779;-57
2022/08/22 10:52:30;;;;;;;72.75;54.55;;;26.50;51.80;;;;;;4935282;28;89614;-56
2022/08/22 10:55:12;;;;;;;71.32;54.20;;;26.50;51.70;;;;;;4932638;28;89920;-57
2022/08/22 10:57:47;;;;;;;72.95;54.20;;;26.50;51.80;;;;;;4936533;28;89919;-56
2022/08/22 11:00:34;;;;;;;70.47;53.95;;;26.50;51.80;;;;;;4934885;28;89796;-57
2022/08/22 11:03:15;;;;;;;70.53;54.08;;;26.50;51.80;;;;;;4940343;28;93571;-57
2022/08/22 11:05:43;;;;;;;73.72;53.85;;;26.60;51.90;;;;;;4943866;28;89641;-56
2022/08/22 11:08:39;;;;;;;72.32;53.78;;;26.50;51.80;;;;;;4932346;28;90577;-57
2022/08/22 11:11:20;;;;;;;72.00;53.97;;;26.60;51.90;;;;;;4938773;28;91043;-56
2022/08/22 11:14:07;;;;;;;71.95;53.97;;;26.60;51.90;;;;;;4939676;28;89722;-55
2022/08/22 11:16:54;;;;;;;71.18;53.47;;;26.60;51.80;;;;;;4934629;28;92563;-58
2022/08/22 11:19:55;;;;;;;73.68;53.80;;;26.70;51.90;;;;;;4941231;28;91044;-57
2022/08/22 11:22:41;;;;;;;71.82;53.88;;;26.70;51.80;;;;;;4938279;28;94858;-56
2022/08/22 11:25:14;;;;;;;72.93;54.03;;;26.70;51.80;;;;;;4933992;28;89709;-58
2022/08/22 11:27:57;;;;;;;70.43;53.72;;;26.70;51.80;;;;;;4933674;28;90377;-57
2022/08/22 11:30:40;;;;;;;68.60;53.92;;;26.70;51.90;;;;;;4930427;28;92541;-55
2022/08/22 11:33:29;;;;;;;68.75;53.70;;;26.60;51.90;;;;;;4929917;28;92733;-56
2022/08/22 11:36:23;;;;;;;70.30;54.90;;;26.70;52.10;;;;;;4925001;28;93881;-56
2022/08/22 11:39:01;;;;;;;75.00;55.97;;;26.70;53.60;;;;;;4925274;28;91051;-58
2022/08/22 11:42:06;;;;;;;78.18;55.20;;;26.70;53.70;;;;;;4925497;28;91645;-53
2022/08/22 11:44:48;;;;;;;78.78;55.40;;;26.80;54.00;;;;;;4932312;28;94030;-55
2022/08/22 11:47:17;;;;;;;73.57;54.72;;;26.80;54.50;;;;;;4930893;28;89831;-56
2022/08/22 11:49:48;;;;;;;76.35;54.92;;;26.80;54.30;;;;;;4933619;28;90064;-56
2022/08/22 11:52:26;;;;;;;72.53;54.45;;;26.80;54.40;;;;;;4928366;28;90928;-49
2022/08/22 11:55:07;;;;;;;71.13;54.38;;;26.80;54.40;;;;;;4944810;28;90160;-58
2022/08/22 11:57:37;;;;;;;71.18;54.50;;;26.80;54.40;;;;;;4932104;28;88932;-53
2022/08/22 12:00:44;;;;;;;71.30;54.35;;;26.90;54.50;;;;;;4932092;28;94280;-52
2022/08/22 12:03:40;;;;;;;70.05;54.22;;;26.90;54.60;;;;;;4929172;28;93553;-55
2022/08/22 12:06:24;;;;;;;71.45;53.80;;;27.00;54.70;;;;;;4934062;28;92630;-56
2022/08/22 12:09:10;;;;;;;70.60;53.95;;;27.00;54.70;;;;;;4932907;28;90380;-56
2022/08/22 12:11:43;;;;;;;69.32;53.72;;;27.00;54.70;;;;;;4932398;28;90232;-55
2022/08/22 12:14:18;;;;;;;69.57;53.50;;;27.00;54.70;;;;;;4929389;28;90068;-56
2022/08/22 12:16:55;;;;;;;67.25;53.60;;;27.00;54.70;;;;;;4925290;28;90367;-54
2022/08/22 12:19:39;;;;;;;67.53;53.55;;;27.00;54.70;;;;;;4933086;28;94804;-55
2022/08/22 12:22:42;;;;;;;68.00;53.20;;;27.10;54.80;;;;;;4926023;28;90168;-50
2022/08/22 12:25:31;;;;;;;69.05;53.28;;;27.10;54.90;;;;;;4933607;28;91345;-54
2022/08/22 12:28:26;;;;;;;69.03;53.42;;;27.10;54.80;;;;;;4927906;28;91487;-55
2022/08/22 12:30:55;;;;;;;72.15;53.50;;;27.10;54.80;;;;;;4926715;28;91470;-60
2022/08/22 12:33:48;;;;;;;70.25;53.35;;;27.10;54.80;;;;;;4935316;28;92294;-56
2022/08/22 12:36:30;;;;;;;71.30;53.33;;;27.10;54.70;;;;;;4934453;28;90873;-55
2022/08/22 12:39:17;;;;;;;69.75;53.40;;;27.10;54.70;;;;;;4944700;28;89985;-60
2022/08/22 12:42:26;;;;;;;68.10;53.40;;;27.20;54.60;;;;;;4938503;28;90279;-55
2022/08/22 12:45:28;;;;;;;68.00;53.50;;;27.10;54.80;;;;;;4933211;28;90348;-57
2022/08/22 12:48:20;;;;;;;68.15;53.03;;;27.10;55.20;;;;;;4928085;28;92593;-58
2022/08/22 12:51:18;;;;;;;69.70;53.35;;;27.10;55.40;;;;;;4939142;28;92736;-55
2022/08/22 12:54:07;;;;;;;67.55;53.25;;;27.10;55.60;;;;;;4928468;28;88847;-54
2022/08/22 12:57:18;;;;;;;70.38;53.13;;;27.10;55.50;;;;;;4925473;28;90074;-53
2022/08/22 12:59:50;;;;;;;66.75;53.22;;;27.10;55.40;;;;;;4926958;28;91994;-54
2022/08/22 13:02:31;;;;;;;70.22;52.92;;;27.10;55.20;;;;;;4924961;28;92774;-56
2022/08/22 13:05:06;;;;;;;68.68;53.53;;;27.20;55.10;;;;;;4903031;28;91071;-53
2022/08/22 13:07:34;;;;;;;68.65;53.13;;;27.20;55.20;;;;;;4887097;28;91110;-56
2022/08/22 13:10:33;;;;;;;66.80;53.17;;;27.20;55.20;;;;;;4891509;28;89896;-56
2022/08/22 13:13:00;;;;;;;66.05;52.88;;;27.10;55.10;;;;;;4896027;28;89757;-53
2022/08/22 13:15:27;;;;;;;66.82;52.63;;;27.10;55.00;;;;;;4903915;28;92435;-55
2022/08/22 13:17:55;;;;;;;66.82;53.03;;;27.10;54.90;;;;;;4896723;28;94124;-54
2022/08/22 13:20:31;;;;;;;66.90;53.35;;;27.10;54.90;;;;;;4888657;28;90277;-54
2022/08/22 13:23:00;;;;;;;66.65;52.92;;;26.90;55.00;;;;;;4873539;28;91096;-57
2022/08/22 13:25:29;;;;;;;67.97;53.17;;;26.90;55.60;;;;;;4888527;28;91028;-57
2022/08/22 13:27:58;;;;;;;68.68;53.28;;;26.90;55.10;;;;;;4894781;28;93542;-53
2022/08/22 13:30:34;;;;;;;72.43;54.35;;;26.80;55.10;;;;;;4919013;28;92332;-54
2022/08/22 13:33:09;;;;;;;75.05;54.83;;;26.70;55.60;;;;;;4925525;28;90236;-51
2022/08/22 13:35:47;;;;;;;73.35;55.53;;;26.60;55.80;;;;;;4930597;28;90320;-54
2022/08/22 13:38:23;;;;;;;75.78;55.65;;;26.60;56.00;;;;;;4924283;28;90032;-53
2022/08/22 13:40:51;;;;;;;73.75;55.08;;;26.50;55.70;;;;;;4924300;28;89938;-53
2022/08/22 13:43:27;;;;;;;72.70;55.40;;;26.60;55.80;;;;;;4924055;28;91409;-51
2022/08/22 13:46:01;;;;;;;75.65;55.53;;;26.60;55.90;;;;;;4931610;28;89634;-52
2022/08/22 13:48:47;;;;;;;72.13;54.97;;;26.50;55.80;;;;;;4935964;28;89781;-53
2022/08/22 13:51:21;;;;;;;78.00;55.53;;;26.50;56.10;;;;;;4928567;28;90606;-54